Time;durP1;ratioP1;P1;durP2;ratioP2;P2;SDS_P1;SDS_P2;PMS_P1;PMS_P2;Temp;Humidity;BMP_temperature;BMP_pressure;BME280_temperature;BME280_humidity;BME280_pressure;Samples;Min_cycle;Max_cycle;Signal;HPM_P1;HPM_P2
2023/07/28 00:02:01;;;;;;;1999.90;999.90;;;;;;;;;;6750857;88;20647;-78
2023/07/28 00:12:02;;;;;;;1999.90;999.90;;;;;;;;;;6757987;88;20399;-79
2023/07/28 00:22:03;;;;;;;1999.90;999.90;;;;;;;;;;6759846;88;20236;-78
2023/07/28 00:32:04;;;;;;;1999.90;999.90;;;;;;;;;;6756756;87;20183;-78
2023/07/28 00:42:05;;;;;;;1999.90;999.90;;;;;;;;;;6764505;88;20189;-78
2023/07/28 00:52:08;;;;;;;1999.90;999.90;;;;;;;;;;6754123;88;20610;-78
2023/07/28 01:02:09;;;;;;;1999.90;999.90;;;;;;;;;;6756552;88;20744;-78
2023/07/28 01:12:10;;;;;;;1999.90;999.90;;;;;;;;;;6752988;88;20193;-78
2023/07/28 01:22:14;;;;;;;1999.90;999.90;;;;;;;;;;6760516;77;20175;-77
2023/07/28 01:32:15;;;;;;;1999.90;999.90;;;;;;;;;;6732733;88;20201;-78
2023/07/28 01:42:16;;;;;;;1999.90;999.90;;;;;;;;;;6731488;88;20658;-79
2023/07/28 01:52:17;;;;;;;1999.90;999.90;;;;;;;;;;6729074;88;20201;-79
2023/07/28 02:02:18;;;;;;;1999.90;999.90;;;;;;;;;;6732963;88;20347;-76
2023/07/28 02:12:19;;;;;;;1999.90;999.90;;;;;;;;;;6735151;88;20736;-77
2023/07/28 02:22:20;;;;;;;1999.90;999.90;;;;;;;;;;6735898;88;20574;-78
2023/07/28 02:32:21;;;;;;;1999.90;999.90;;;;;;;;;;6731550;88;20221;-77
2023/07/28 02:42:23;;;;;;;1999.90;999.90;;;;;;;;;;6735892;88;20262;-77
2023/07/28 02:52:24;;;;;;;1999.90;999.90;;;;;;;;;;6746572;88;20216;-77
2023/07/28 03:02:25;;;;;;;1999.90;999.90;;;;;;;;;;6745293;88;20317;-79
2023/07/28 03:12:26;;;;;;;1999.90;999.90;;;;;;;;;;6760722;88;20232;-77
2023/07/28 03:22:27;;;;;;;1999.90;999.90;;;;;;;;;;6757320;88;20216;-77
2023/07/28 03:32:28;;;;;;;1999.90;999.90;;;;;;;;;;6748806;88;20197;-79
2023/07/28 03:42:29;;;;;;;1999.90;999.90;;;;;;;;;;6744596;88;20246;-78
2023/07/28 03:52:30;;;;;;;1999.90;999.90;;;;;;;;;;6744764;88;20173;-77
2023/07/28 04:02:31;;;;;;;1999.90;999.90;;;;;;;;;;6749066;88;20219;-79
2023/07/28 04:12:32;;;;;;;1999.90;999.90;;;;;;;;;;6745615;88;20412;-76
2023/07/28 04:22:33;;;;;;;1999.90;999.90;;;;;;;;;;6742369;88;20671;-77
2023/07/28 04:32:34;;;;;;;1999.90;999.90;;;;;;;;;;6745847;88;20707;-79
2023/07/28 04:42:36;;;;;;;1999.90;999.90;;;;;;;;;;6752138;88;20311;-77
2023/07/28 04:52:37;;;;;;;1999.90;999.90;;;;;;;;;;6747926;88;20192;-78
2023/07/28 05:02:38;;;;;;;1999.90;999.90;;;;;;;;;;6748272;88;20784;-77
2023/07/28 05:12:39;;;;;;;1999.90;999.90;;;;;;;;;;6744785;88;20381;-77
2023/07/28 05:22:40;;;;;;;1999.90;999.90;;;;;;;;;;6744966;88;20699;-77
2023/07/28 05:32:41;;;;;;;1999.90;999.90;;;;;;;;;;6752682;88;20631;-77
2023/07/28 05:42:42;;;;;;;1999.90;999.90;;;;;;;;;;6752923;88;20168;-78
2023/07/28 05:52:43;;;;;;;1999.90;999.90;;;;;;;;;;6742605;88;20226;-79
2023/07/28 06:02:44;;;;;;;1999.90;999.90;;;;;;;;;;6750975;88;20208;-78
2023/07/28 06:12:45;;;;;;;1999.90;999.90;;;;;;;;;;6745786;88;20628;-78
2023/07/28 06:22:46;;;;;;;1999.90;999.90;;;;;;;;;;6749910;88;20680;-77
2023/07/28 06:32:47;;;;;;;1999.90;999.90;;;;;;;;;;6746620;88;20177;-79
2023/07/28 06:42:48;;;;;;;1999.90;999.90;;;;;;;;;;6748288;88;20278;-78
2023/07/28 06:52:49;;;;;;;1999.90;999.90;;;;;;;;;;6752596;88;20609;-78
2023/07/28 07:02:50;;;;;;;1999.90;999.90;;;;;;;;;;6756770;88;20215;-79
2023/07/28 07:12:51;;;;;;;1999.90;999.90;;;;;;;;;;6756202;88;20674;-78
2023/07/28 07:32:56;;;;;;;1999.90;999.90;;;;;;;;;;6744951;88;20201;-83
2023/07/28 07:42:57;;;;;;;1999.90;999.90;;;;;;;;;;6742410;88;20651;-82
2023/07/28 07:52:59;;;;;;;1999.90;999.90;;;;;;;;;;6741764;88;20200;-83
2023/07/28 08:03:00;;;;;;;1999.90;999.90;;;;;;;;;;6739801;88;20200;-81
2023/07/28 08:13:01;;;;;;;1999.90;999.90;;;;;;;;;;6740172;88;20190;-80
2023/07/28 08:23:02;;;;;;;1999.90;999.90;;;;;;;;;;6739947;88;20206;-80
2023/07/28 08:33:03;;;;;;;1999.90;999.90;;;;;;;;;;6736396;88;20247;-80
2023/07/28 08:43:05;;;;;;;1999.90;999.90;;;;;;;;;;6732916;88;20215;-80
2023/07/28 08:53:06;;;;;;;1999.90;999.90;;;;;;;;;;6731793;88;20209;-79
2023/07/28 09:23:36;;;;;;;1999.90;999.90;;;;;;;;;;6711676;88;20174;-80
2023/07/28 09:53:53;;;;;;;1999.90;999.90;;;;;;;;;;6709341;89;20220;-80
2023/07/28 10:03:54;;;;;;;1999.90;999.90;;;;;;;;;;6705589;89;20181;-82
2023/07/28 10:13:56;;;;;;;1999.90;999.90;;;;;;;;;;6711220;89;20213;-80
2023/07/28 10:23:58;;;;;;;1999.90;999.90;;;;;;;;;;6704383;89;20219;-79
2023/07/28 10:33:59;;;;;;;1999.90;999.90;;;;;;;;;;6710815;88;20243;-83
2023/07/28 10:44:00;;;;;;;1999.90;999.90;;;;;;;;;;6711116;88;20277;-82
2023/07/28 10:54:04;;;;;;;1999.90;999.90;;;;;;;;;;6707331;88;20648;-82
2023/07/28 11:04:10;;;;;;;1999.90;999.90;;;;;;;;;;6709658;88;21009;-82
2023/07/28 11:14:11;;;;;;;1999.90;999.90;;;;;;;;;;6710755;88;20652;-82
2023/07/28 11:24:18;;;;;;;1999.90;999.90;;;;;;;;;;6708906;88;20182;-82
2023/07/28 11:34:19;;;;;;;1999.90;999.90;;;;;;;;;;6713954;88;20182;-81
2023/07/28 11:54:25;;;;;;;1999.90;999.90;;;;;;;;;;6741971;88;20195;-79
2023/07/28 12:04:30;;;;;;;1999.90;999.90;;;;;;;;;;6743062;88;20181;-79
2023/07/28 12:14:32;;;;;;;1999.90;999.90;;;;;;;;;;6740657;88;20253;-83
2023/07/28 12:24:33;;;;;;;1999.90;999.90;;;;;;;;;;6740423;88;20200;-81
2023/07/28 12:34:34;;;;;;;1999.90;999.90;;;;;;;;;;6743114;88;20223;-81
2023/07/28 12:44:36;;;;;;;1999.90;999.90;;;;;;;;;;6735318;88;20184;-81
2023/07/28 12:54:39;;;;;;;1999.90;999.90;;;;;;;;;;6736038;88;20618;-81
2023/07/28 13:04:40;;;;;;;1999.90;999.90;;;;;;;;;;6741074;88;20205;-80
2023/07/28 13:14:57;;;;;;;1999.90;999.90;;;;;;;;;;6743000;88;20177;-78
2023/07/28 13:35:38;;;;;;;1999.90;999.90;;;;;;;;;;6699831;88;20208;-78
2023/07/28 13:45:46;;;;;;;1999.90;999.90;;;;;;;;;;6705983;88;20854;-78
2023/07/28 13:55:47;;;;;;;1999.90;999.90;;;;;;;;;;6706017;88;20191;-77
2023/07/28 14:05:48;;;;;;;1999.90;999.90;;;;;;;;;;6720300;88;20201;-76
2023/07/28 14:15:51;;;;;;;1999.90;999.90;;;;;;;;;;6729716;88;20578;-77
2023/07/28 14:25:52;;;;;;;1999.90;999.90;;;;;;;;;;6734708;88;20198;-76
2023/07/28 14:35:53;;;;;;;1999.90;999.90;;;;;;;;;;6725910;88;20192;-76
2023/07/28 14:45:54;;;;;;;1999.90;999.90;;;;;;;;;;6728806;88;20335;-77
2023/07/28 14:55:56;;;;;;;1999.90;999.90;;;;;;;;;;6728368;88;20239;-78
2023/07/28 15:05:57;;;;;;;1999.90;999.90;;;;;;;;;;6733811;88;20229;-76
2023/07/28 15:15:58;;;;;;;1999.90;999.90;;;;;;;;;;6733060;88;20228;-77
2023/07/28 15:25:59;;;;;;;1999.90;999.90;;;;;;;;;;6726590;88;20210;-77
2023/07/28 15:36:00;;;;;;;1999.90;999.90;;;;;;;;;;6725133;88;20213;-77
2023/07/28 15:46:04;;;;;;;1999.90;999.90;;;;;;;;;;6726854;88;20318;-78
2023/07/28 15:56:05;;;;;;;1999.90;999.90;;;;;;;;;;6734056;88;20205;-78
2023/07/28 16:06:06;;;;;;;1999.90;999.90;;;;;;;;;;6728892;88;20655;-78
2023/07/28 16:16:07;;;;;;;1999.90;999.90;;;;;;;;;;6729826;88;20193;-79
2023/07/28 16:26:09;;;;;;;1999.90;999.90;;;;;;;;;;6733318;88;20337;-79
2023/07/28 16:36:10;;;;;;;1999.90;999.90;;;;;;;;;;6732742;88;20220;-79
2023/07/28 16:46:11;;;;;;;1999.90;999.90;;;;;;;;;;6729912;88;20222;-79
2023/07/28 16:56:12;;;;;;;1999.90;999.90;;;;;;;;;;6725027;88;20244;-79
2023/07/28 17:06:13;;;;;;;1999.90;999.90;;;;;;;;;;6734887;88;20682;-79
2023/07/28 17:16:14;;;;;;;1999.90;999.90;;;;;;;;;;6725613;88;20235;-80
2023/07/28 17:26:15;;;;;;;1999.90;999.90;;;;;;;;;;6729888;88;20178;-79
2023/07/28 17:36:16;;;;;;;1999.90;999.90;;;;;;;;;;6722418;88;20239;-79
2023/07/28 17:46:17;;;;;;;1999.90;999.90;;;;;;;;;;6731464;88;20801;-78
2023/07/28 17:56:18;;;;;;;1999.90;999.90;;;;;;;;;;6741457;88;20575;-79
2023/07/28 18:06:20;;;;;;;1999.90;999.90;;;;;;;;;;6732762;88;20206;-78
2023/07/28 18:16:24;;;;;;;1999.90;999.90;;;;;;;;;;6734443;88;20174;-79
2023/07/28 18:26:25;;;;;;;1999.90;999.90;;;;;;;;;;6712054;88;20230;-79
2023/07/28 18:36:26;;;;;;;1999.90;999.90;;;;;;;;;;6729771;88;20281;-78
2023/07/28 18:46:27;;;;;;;1999.90;999.90;;;;;;;;;;6735633;88;20593;-79
2023/07/28 18:56:28;;;;;;;1999.90;999.90;;;;;;;;;;6727688;88;20198;-78
2023/07/28 19:06:29;;;;;;;1999.90;999.90;;;;;;;;;;6734040;88;20197;-78
2023/07/28 19:16:30;;;;;;;1999.90;999.90;;;;;;;;;;6728430;88;20194;-77
2023/07/28 19:26:31;;;;;;;1999.90;999.90;;;;;;;;;;6715812;77;20329;-79
2023/07/28 19:36:32;;;;;;;1999.90;999.90;;;;;;;;;;6699931;88;20588;-78
2023/07/28 19:46:33;;;;;;;1999.90;999.90;;;;;;;;;;6709617;88;20191;-77
2023/07/28 19:56:34;;;;;;;1999.90;999.90;;;;;;;;;;6703467;88;20212;-77
2023/07/28 20:06:35;;;;;;;1999.90;999.90;;;;;;;;;;6701774;88;20182;-78
2023/07/28 20:16:36;;;;;;;1999.90;999.90;;;;;;;;;;6703288;88;20899;-78
2023/07/28 20:26:37;;;;;;;1999.90;999.90;;;;;;;;;;6712785;88;20274;-77
2023/07/28 20:36:38;;;;;;;1999.90;999.90;;;;;;;;;;6716564;88;20645;-77
2023/07/28 20:46:39;;;;;;;1999.90;999.90;;;;;;;;;;6710453;88;20202;-76
2023/07/28 20:56:40;;;;;;;1999.90;999.90;;;;;;;;;;6712077;88;20277;-78
2023/07/28 21:06:41;;;;;;;1999.90;999.90;;;;;;;;;;6713935;88;20720;-78
2023/07/28 21:16:42;;;;;;;1999.90;999.90;;;;;;;;;;6719134;88;20324;-78
2023/07/28 21:26:43;;;;;;;1999.90;999.90;;;;;;;;;;6713488;88;20239;-77
2023/07/28 21:36:47;;;;;;;1999.90;999.90;;;;;;;;;;6720410;88;20213;-77
2023/07/28 21:46:48;;;;;;;1999.90;999.90;;;;;;;;;;6719037;88;20259;-78
2023/07/28 21:56:49;;;;;;;1999.90;999.90;;;;;;;;;;6716516;88;20201;-78
2023/07/28 22:06:50;;;;;;;1999.90;999.90;;;;;;;;;;6716216;88;20218;-77
2023/07/28 22:16:51;;;;;;;1999.90;999.90;;;;;;;;;;6715085;88;20194;-78
2023/07/28 22:26:52;;;;;;;1999.90;999.90;;;;;;;;;;6723285;88;20256;-77
2023/07/28 22:36:53;;;;;;;1999.90;999.90;;;;;;;;;;6719948;88;20326;-77
2023/07/28 22:46:55;;;;;;;1999.90;999.90;;;;;;;;;;6717308;88;20181;-77
2023/07/28 22:56:56;;;;;;;1999.90;999.90;;;;;;;;;;6716904;88;20211;-78
2023/07/28 23:06:57;;;;;;;1999.90;999.90;;;;;;;;;;6720973;88;20249;-78
2023/07/28 23:16:58;;;;;;;1999.90;999.90;;;;;;;;;;6713619;88;20193;-77
2023/07/28 23:26:59;;;;;;;1999.90;999.90;;;;;;;;;;6719821;88;20387;-77
2023/07/28 23:37:00;;;;;;;1999.90;999.90;;;;;;;;;;6718100;88;20248;-78
2023/07/28 23:47:01;;;;;;;1999.90;999.90;;;;;;;;;;6714188;88;20605;-77
2023/07/28 23:57:02;;;;;;;1999.90;999.90;;;;;;;;;;6715685;88;20202;-77
